createdAt,value
2022-08-26T00:02:06.437Z,19.20
2022-08-26T00:04:33.541Z,19.20
2022-08-26T00:07:00.452Z,19.10
2022-08-26T00:09:37.195Z,19.10
2022-08-26T00:12:08.988Z,19.20
2022-08-26T00:14:38.365Z,19.20
2022-08-26T00:17:05.483Z,19.20
2022-08-26T00:19:35.914Z,19.20
2022-08-26T00:22:02.990Z,19.10
2022-08-26T00:24:32.097Z,19.10
2022-08-26T00:26:58.847Z,19.10
2022-08-26T00:29:25.788Z,19.10
2022-08-26T00:31:56.561Z,19.10
2022-08-26T00:34:23.523Z,19.10
2022-08-26T00:36:52.720Z,19.00
2022-08-26T00:39:19.970Z,19.00
2022-08-26T00:41:47.832Z,19.00
2022-08-26T00:44:14.578Z,18.90
2022-08-26T00:46:46.928Z,18.90
2022-08-26T00:49:23.810Z,18.90
2022-08-26T00:51:53.377Z,18.80
2022-08-26T00:54:27.055Z,18.80
2022-08-26T00:57:16.082Z,18.90
2022-08-26T00:59:56.707Z,18.90
2022-08-26T01:02:26.464Z,18.90
2022-08-26T01:05:00.741Z,18.90
2022-08-26T01:07:31.353Z,18.90
2022-08-26T01:10:01.294Z,18.90
2022-08-26T01:12:37.991Z,18.80
2022-08-26T01:15:09.388Z,18.80
2022-08-26T01:17:38.251Z,18.70
2022-08-26T01:20:26.781Z,18.70
2022-08-26T01:23:06.126Z,18.60
2022-08-26T01:25:46.132Z,18.60
2022-08-26T01:28:23.279Z,18.50
2022-08-26T01:30:52.599Z,18.50
2022-08-26T01:33:27.788Z,18.40
2022-08-26T01:35:55.611Z,18.40
2022-08-26T01:38:23.802Z,18.30
2022-08-26T01:40:50.617Z,18.30
2022-08-26T01:43:22.251Z,18.30
2022-08-26T01:45:54.251Z,18.30
2022-08-26T01:48:28.091Z,18.30
2022-08-26T01:50:56.669Z,18.30
2022-08-26T01:53:26.690Z,18.20
2022-08-26T01:55:59.476Z,18.10
2022-08-26T01:58:33.585Z,18.00
2022-08-26T02:01:02.562Z,18.00
2022-08-26T02:03:30.122Z,18.00
2022-08-26T02:06:03.035Z,18.00
2022-08-26T02:08:43.987Z,18.00
2022-08-26T02:11:11.551Z,18.00
2022-08-26T02:13:46.615Z,18.00
2022-08-26T02:16:16.988Z,18.00
2022-08-26T02:18:46.928Z,18.00
2022-08-26T02:21:16.510Z,18.00
2022-08-26T02:23:47.963Z,18.00
2022-08-26T02:26:19.364Z,18.00
2022-08-26T02:28:56.731Z,18.00
2022-08-26T02:31:24.984Z,18.10
2022-08-26T02:33:52.237Z,18.10
2022-08-26T02:36:21.662Z,18.10
2022-08-26T02:38:52.108Z,18.10
2022-08-26T02:41:18.799Z,18.00
2022-08-26T02:43:45.490Z,17.90
2022-08-26T02:46:12.366Z,17.90
2022-08-26T02:48:50.353Z,17.80
2022-08-26T02:51:17.440Z,17.80
2022-08-26T02:53:44.484Z,17.80
2022-08-26T02:56:11.319Z,17.70
2022-08-26T02:58:38.010Z,17.70
2022-08-26T03:01:05.471Z,17.70
2022-08-26T03:03:33.322Z,17.70
2022-08-26T03:06:00.442Z,17.60
2022-08-26T03:08:27.341Z,17.70
2022-08-26T03:10:53.990Z,17.70
2022-08-26T03:13:20.646Z,17.70
2022-08-26T03:15:47.649Z,17.80
2022-08-26T03:18:16.686Z,17.80
2022-08-26T03:20:43.904Z,17.80
2022-08-26T03:23:14.057Z,17.70
2022-08-26T03:26:07.055Z,17.70
2022-08-26T03:29:00.858Z,17.60
2022-08-26T03:31:35.476Z,17.50
2022-08-26T03:34:04.620Z,17.50
2022-08-26T03:36:33.764Z,17.50
2022-08-26T03:39:02.348Z,17.60
2022-08-26T03:41:31.858Z,17.60
2022-08-26T03:44:01.522Z,17.70
2022-08-26T03:46:32.490Z,17.80
2022-08-26T03:49:01.619Z,17.80
2022-08-26T03:51:28.900Z,17.80
2022-08-26T03:53:55.633Z,17.80
2022-08-26T03:56:24.006Z,17.90
2022-08-26T03:58:53.904Z,17.90
2022-08-26T04:01:20.829Z,17.80
2022-08-26T04:03:57.126Z,17.80
2022-08-26T04:06:33.604Z,17.70
2022-08-26T04:09:04.549Z,17.60
2022-08-26T04:11:34.785Z,17.60
2022-08-26T04:14:13.717Z,17.50
2022-08-26T04:16:44.088Z,17.40
2022-08-26T04:19:12.852Z,17.30
2022-08-26T04:21:40.675Z,17.20
2022-08-26T04:24:17.631Z,17.20
2022-08-26T04:26:44.625Z,17.10
2022-08-26T04:29:18.141Z,17.10
2022-08-26T04:31:47.249Z,17.00
2022-08-26T04:34:20.043Z,17.10
2022-08-26T04:36:47.064Z,17.00
2022-08-26T04:39:16.219Z,17.00
2022-08-26T04:41:47.670Z,17.00
2022-08-26T04:44:16.200Z,17.00
2022-08-26T04:46:44.504Z,17.10
2022-08-26T04:49:12.430Z,17.10
2022-08-26T04:51:45.457Z,17.10
2022-08-26T04:54:20.453Z,17.10
2022-08-26T04:56:48.836Z,17.10
2022-08-26T04:59:18.224Z,17.10
2022-08-26T05:01:48.368Z,17.10
2022-08-26T05:04:16.254Z,17.10
2022-08-26T05:06:46.848Z,17.10
2022-08-26T05:09:15.328Z,17.10
2022-08-26T05:11:42.314Z,17.10
2022-08-26T05:14:09.345Z,17.00
2022-08-26T05:16:43.672Z,17.00
2022-08-26T05:19:15.934Z,17.00
2022-08-26T05:21:50.561Z,17.00
2022-08-26T05:24:20.405Z,17.00
2022-08-26T05:26:48.148Z,17.00
2022-08-26T05:29:15.811Z,17.10
2022-08-26T05:31:46.182Z,17.10
2022-08-26T05:34:15.081Z,17.10
2022-08-26T05:36:42.046Z,17.20
2022-08-26T05:39:11.954Z,17.20
2022-08-26T05:41:42.126Z,17.30
2022-08-26T05:44:53.829Z,17.40
2022-08-26T05:47:20.236Z,17.40
2022-08-26T05:49:51.689Z,17.50
2022-08-26T05:52:19.022Z,17.60
2022-08-26T05:54:47.040Z,17.70
2022-08-26T05:57:14.834Z,17.80
2022-08-26T05:59:41.554Z,17.90
2022-08-26T06:02:08.937Z,18.00
2022-08-26T06:04:35.667Z,18.10
2022-08-26T06:07:07.624Z,18.20
2022-08-26T06:09:42.251Z,18.30
2022-08-26T06:12:10.451Z,18.40
2022-08-26T06:14:37.132Z,18.50
2022-08-26T06:17:09.616Z,18.50
2022-08-26T06:20:01.544Z,18.70
2022-08-26T06:22:46.729Z,18.80
2022-08-26T06:25:31.989Z,19.00
2022-08-26T06:27:59.302Z,19.10
2022-08-26T06:30:30.378Z,19.30
2022-08-26T06:33:00.351Z,19.40
2022-08-26T06:41:37.315Z,19.90
2022-08-26T06:44:44.737Z,20.00
2022-08-26T06:47:12.113Z,20.10
2022-08-26T06:49:44.279Z,20.20
2022-08-26T06:52:42.944Z,20.30
2022-08-26T06:55:18.526Z,20.40
2022-08-26T06:57:46.070Z,20.50
2022-08-26T07:00:14.680Z,20.60
2022-08-26T07:02:46.188Z,20.70
2022-08-26T07:05:16.239Z,20.90
2022-08-26T07:07:43.242Z,21.10
2022-08-26T07:10:12.744Z,21.20
2022-08-26T07:12:39.522Z,21.30
2022-08-26T07:15:11.555Z,21.50
2022-08-26T07:18:11.336Z,21.60
2022-08-26T07:20:42.250Z,21.70
2022-08-26T07:23:12.137Z,21.90
2022-08-26T07:25:50.569Z,22.10
2022-08-26T07:28:25.265Z,22.30
2022-08-26T07:30:53.595Z,22.60
2022-08-26T07:33:22.868Z,22.80
2022-08-26T07:35:49.790Z,23.00
2022-08-26T07:38:17.410Z,23.30
2022-08-26T07:41:12.491Z,23.40
2022-08-26T07:43:39.706Z,23.60
2022-08-26T07:46:07.955Z,23.80
2022-08-26T07:48:39.006Z,24.00
2022-08-26T07:51:10.529Z,24.10
2022-08-26T07:53:48.077Z,24.30
2022-08-26T07:56:22.494Z,24.40
2022-08-26T07:58:54.569Z,24.40
2022-08-26T08:01:23.690Z,24.40
2022-08-26T08:03:52.543Z,24.40
2022-08-26T08:06:27.212Z,24.40
2022-08-26T08:08:56.370Z,24.40
2022-08-26T08:11:23.631Z,24.40
2022-08-26T08:13:56.162Z,24.50
2022-08-26T08:16:28.463Z,24.60
2022-08-26T08:18:59.248Z,24.80
2022-08-26T08:21:28.963Z,24.90
2022-08-26T08:23:57.724Z,25.00
2022-08-26T08:26:25.523Z,25.10
2022-08-26T08:29:00.154Z,25.20
2022-08-26T08:34:21.538Z,25.30
2022-08-26T08:36:53.389Z,25.50
2022-08-26T08:39:22.012Z,25.70
2022-08-26T08:42:10.259Z,25.90
2022-08-26T08:44:52.001Z,26.10
2022-08-26T08:47:33.155Z,26.10
2022-08-26T08:50:53.248Z,26.20
2022-08-26T08:53:33.453Z,26.40
2022-08-26T08:56:23.762Z,26.60
2022-08-26T08:59:16.112Z,26.80
2022-08-26T09:02:16.067Z,26.80
2022-08-26T09:05:39.304Z,26.90
2022-08-26T09:08:11.625Z,27.10
2022-08-26T09:10:50.049Z,27.30
2022-08-26T09:13:24.942Z,27.40
2022-08-26T09:19:32.796Z,27.70
2022-08-26T09:22:01.631Z,27.90
2022-08-26T09:24:38.417Z,28.20
2022-08-26T09:27:51.393Z,28.50
2022-08-26T09:30:32.242Z,28.90
2022-08-26T09:33:01.721Z,29.20
2022-08-26T09:35:46.488Z,29.50
2022-08-26T09:38:37.808Z,29.80
2022-08-26T09:41:20.267Z,29.90
2022-08-26T09:44:16.929Z,30.10
2022-08-26T09:55:22.369Z,31.10
2022-08-26T09:57:54.216Z,31.40
2022-08-26T10:00:26.941Z,31.60
2022-08-26T10:03:33.734Z,31.70
2022-08-26T10:06:25.750Z,31.60
2022-08-26T10:09:03.602Z,31.80
2022-08-26T10:11:49.984Z,32.00
2022-08-26T10:21:18.009Z,32.50
2022-08-26T10:27:03.433Z,32.70
2022-08-26T10:29:43.381Z,32.70
2022-08-26T10:35:16.787Z,33.00
2022-08-26T10:37:55.301Z,33.20
2022-08-26T10:40:49.147Z,33.20
2022-08-26T10:43:36.741Z,33.50
2022-08-26T10:49:14.780Z,33.20
2022-08-26T10:52:24.235Z,33.60
2022-08-26T10:55:15.031Z,33.90
2022-08-26T10:57:53.228Z,34.40
2022-08-26T11:00:56.837Z,34.10
2022-08-26T11:04:02.129Z,34.20
2022-08-26T11:06:30.639Z,34.20
2022-08-26T11:09:03.409Z,34.20
2022-08-26T11:11:50.897Z,34.20
2022-08-26T11:14:28.446Z,34.50
2022-08-26T11:16:58.086Z,34.70
2022-08-26T11:19:59.599Z,35.10
2022-08-26T11:22:34.848Z,35.50
2022-08-26T11:25:12.852Z,35.70
2022-08-26T11:27:40.841Z,35.80
2022-08-26T11:30:18.573Z,36.00
2022-08-26T11:32:56.560Z,35.70
2022-08-26T11:35:23.793Z,35.50
2022-08-26T11:37:57.488Z,35.20
2022-08-26T11:40:56.946Z,35.20
2022-08-26T11:43:37.212Z,35.40
2022-08-26T11:46:17.658Z,35.70
2022-08-26T11:48:45.513Z,35.90
2022-08-26T11:51:24.237Z,36.10
2022-08-26T11:54:18.083Z,36.30
2022-08-26T11:56:59.966Z,36.40
2022-08-26T11:59:40.240Z,36.20
2022-08-26T12:02:16.667Z,36.30
2022-08-26T12:04:48.834Z,36.40
2022-08-26T12:07:23.971Z,36.70
2022-08-26T12:10:00.443Z,36.70
2022-08-26T12:12:34.960Z,36.70
2022-08-26T12:15:22.229Z,36.90
2022-08-26T12:17:53.544Z,37.00
2022-08-26T12:21:00.697Z,37.10
2022-08-26T12:23:37.454Z,37.10
2022-08-26T12:26:07.046Z,37.30
2022-08-26T12:28:42.853Z,37.30
2022-08-26T12:31:20.805Z,37.20
2022-08-26T12:33:51.691Z,36.70
2022-08-26T12:36:33.798Z,36.60
2022-08-26T12:39:14.140Z,36.70
2022-08-26T12:41:53.119Z,36.80
2022-08-26T12:44:37.009Z,36.30
2022-08-26T12:47:10.042Z,35.90
2022-08-26T12:49:38.872Z,35.90
2022-08-26T12:52:08.845Z,36.10
2022-08-26T12:54:56.825Z,36.10
2022-08-26T12:57:30.727Z,36.40
2022-08-26T13:00:35.229Z,36.50
2022-08-26T13:03:02.151Z,36.70
2022-08-26T13:05:34.887Z,37.00
2022-08-26T13:08:15.198Z,37.20
2022-08-26T13:11:04.885Z,37.40
2022-08-26T13:13:45.620Z,37.40
2022-08-26T13:16:15.934Z,37.20
2022-08-26T13:18:52.296Z,37.10
2022-08-26T13:21:28.721Z,37.10
2022-08-26T13:24:11.487Z,37.20
2022-08-26T13:26:40.050Z,37.20
2022-08-26T13:29:10.482Z,36.80
2022-08-26T13:31:40.300Z,36.40
2022-08-26T13:34:09.803Z,36.40
2022-08-26T13:36:36.652Z,36.70
2022-08-26T13:39:04.683Z,37.00
2022-08-26T13:41:31.908Z,37.00
2022-08-26T13:44:04.316Z,37.00
2022-08-26T13:46:31.502Z,37.20
2022-08-26T13:49:00.498Z,36.70
2022-08-26T13:51:27.942Z,36.30
2022-08-26T13:54:00.718Z,35.80
2022-08-26T13:56:28.822Z,35.90
2022-08-26T13:59:00.608Z,36.20
2022-08-26T14:01:32.373Z,36.30
2022-08-26T14:04:01.771Z,36.60
2022-08-26T14:06:47.751Z,36.90
2022-08-26T14:13:02.598Z,37.50
2022-08-26T14:15:50.222Z,37.50
2022-08-26T14:18:52.451Z,37.20
2022-08-26T14:21:21.045Z,36.80
2022-08-26T14:23:48.192Z,36.70
2022-08-26T14:26:30.012Z,36.60
2022-08-26T14:29:20.929Z,36.40
2022-08-26T14:31:55.306Z,36.20
2022-08-26T14:34:26.211Z,36.10
2022-08-26T14:37:07.784Z,36.00
2022-08-26T14:40:10.782Z,35.60
2022-08-26T14:43:10.819Z,35.10
2022-08-26T14:46:04.245Z,34.60
2022-08-26T14:48:40.210Z,33.70
2022-08-26T14:51:17.559Z,33.40
2022-08-26T14:54:14.857Z,33.20
2022-08-26T14:56:53.700Z,33.10
2022-08-26T14:59:28.446Z,33.20
2022-08-26T15:02:07.985Z,33.30
2022-08-26T15:05:09.596Z,33.50
2022-08-26T15:07:39.649Z,33.70
2022-08-26T15:10:19.937Z,33.50
2022-08-26T15:13:00.191Z,33.60
2022-08-26T15:15:52.037Z,33.50
2022-08-26T15:18:51.088Z,33.40
2022-08-26T15:21:43.250Z,33.30
2022-08-26T15:24:26.606Z,33.10
2022-08-26T15:27:05.913Z,33.00
2022-08-26T15:29:48.596Z,32.90
2022-08-26T15:33:04.833Z,32.80
2022-08-26T15:35:33.089Z,32.80
2022-08-26T15:38:13.109Z,32.60
2022-08-26T15:40:42.733Z,32.50
2022-08-26T15:43:25.534Z,32.40
2022-08-26T15:45:56.237Z,32.40
2022-08-26T15:48:24.877Z,32.40
2022-08-26T15:50:56.557Z,32.30
2022-08-26T15:53:25.757Z,32.20
2022-08-26T15:55:56.436Z,32.10
2022-08-26T15:58:30.784Z,31.50
2022-08-26T16:00:57.801Z,30.20
2022-08-26T16:03:26.739Z,29.30
2022-08-26T16:05:55.486Z,28.80
2022-08-26T16:08:26.355Z,28.50
2022-08-26T16:10:56.725Z,28.20
2022-08-26T16:13:23.753Z,27.90
2022-08-26T16:15:55.698Z,27.70
2022-08-26T16:18:27.124Z,27.60
2022-08-26T16:20:55.369Z,27.50
2022-08-26T16:24:04.719Z,27.20
2022-08-26T16:26:34.379Z,26.90
2022-08-26T16:29:09.194Z,26.70
2022-08-26T16:31:37.207Z,26.60
2022-08-26T16:34:06.600Z,26.50
2022-08-26T16:36:37.398Z,26.40
2022-08-26T16:39:05.631Z,26.30
2022-08-26T16:41:37.327Z,26.10
2022-08-26T16:44:05.613Z,26.00
2022-08-26T16:46:34.171Z,26.00
2022-08-26T16:49:03.728Z,25.90
2022-08-26T16:51:37.932Z,25.70
2022-08-26T16:54:09.995Z,25.20
2022-08-26T16:56:39.420Z,24.80
2022-08-26T16:59:10.799Z,24.30
2022-08-26T17:01:41.058Z,23.90
2022-08-26T17:04:08.010Z,23.50
2022-08-26T17:06:37.415Z,23.20
2022-08-26T17:09:08.583Z,23.10
2022-08-26T17:11:46.195Z,22.70
2022-08-26T17:14:13.112Z,22.50
2022-08-26T17:16:39.820Z,22.20
2022-08-26T17:19:07.395Z,22.10
2022-08-26T17:21:35.567Z,22.00
2022-08-26T17:24:06.201Z,21.90
2022-08-26T17:26:37.013Z,22.00
2022-08-26T17:29:06.608Z,22.00
2022-08-26T17:31:34.234Z,22.00
2022-08-26T17:34:01.491Z,22.00
2022-08-26T17:36:37.261Z,21.90
2022-08-26T17:39:06.602Z,21.80
2022-08-26T17:41:36.883Z,21.70
2022-08-26T17:44:12.502Z,21.50
2022-08-26T17:46:39.735Z,21.40
2022-08-26T17:49:06.669Z,21.50
2022-08-26T17:51:35.698Z,21.60
2022-08-26T17:54:08.245Z,21.40
2022-08-26T17:56:46.714Z,21.20
2022-08-26T17:59:13.436Z,21.20
2022-08-26T18:01:44.513Z,21.20
2022-08-26T18:04:36.480Z,21.30
2022-08-26T18:07:04.553Z,21.50
2022-08-26T18:09:36.010Z,21.70
2022-08-26T18:12:39.567Z,21.80
2022-08-26T18:20:54.083Z,22.30
2022-08-26T18:23:29.571Z,22.40
2022-08-26T18:26:00.745Z,22.20
2022-08-26T18:28:29.184Z,22.10
2022-08-26T18:30:59.310Z,22.00
2022-08-26T18:33:36.071Z,22.10
2022-08-26T18:36:06.583Z,22.10
2022-08-26T18:38:37.210Z,22.20
2022-08-26T18:41:04.284Z,22.20
2022-08-26T18:43:40.308Z,22.30
2022-08-26T18:46:09.722Z,22.30
2022-08-26T18:48:49.098Z,22.30
2022-08-26T18:51:36.653Z,22.20
2022-08-26T18:54:32.454Z,22.20
2022-08-26T18:57:02.105Z,22.00
2022-08-26T18:59:35.050Z,21.90
2022-08-26T19:02:06.746Z,21.90
2022-08-26T19:04:38.117Z,21.80
2022-08-26T19:19:47.751Z,21.20
2022-08-26T19:22:27.337Z,21.10
2022-08-26T19:25:00.547Z,21.10
2022-08-26T19:27:33.208Z,21.00
2022-08-26T19:30:09.154Z,21.10
2022-08-26T19:32:37.246Z,21.00
2022-08-26T19:35:08.471Z,21.10
2022-08-26T19:38:00.724Z,21.10
2022-08-26T19:40:31.584Z,21.20
2022-08-26T19:45:56.775Z,21.10
2022-08-26T19:51:30.259Z,21.10
2022-08-26T19:57:09.616Z,21.00
2022-08-26T19:59:39.649Z,20.90
2022-08-26T20:02:17.412Z,20.90
2022-08-26T20:04:45.019Z,20.90
2022-08-26T20:07:22.135Z,20.90
2022-08-26T20:09:50.122Z,20.80
2022-08-26T20:12:19.636Z,20.70
2022-08-26T20:14:46.358Z,20.70
2022-08-26T20:17:16.941Z,20.80
2022-08-26T20:20:06.568Z,20.90
2022-08-26T20:22:53.921Z,20.90
2022-08-26T20:25:23.751Z,21.00
2022-08-26T20:27:55.191Z,21.10
2022-08-26T20:30:43.917Z,21.10
2022-08-26T20:33:46.130Z,21.20
2022-08-26T20:36:22.896Z,21.30
2022-08-26T20:38:54.744Z,21.40
2022-08-26T20:41:24.886Z,21.40
2022-08-26T20:43:56.109Z,21.40
2022-08-26T20:46:25.302Z,21.40
2022-08-26T20:48:55.527Z,21.50
2022-08-26T20:51:28.585Z,21.50
2022-08-26T20:54:00.771Z,21.50
2022-08-26T20:56:35.876Z,21.50
2022-08-26T20:59:06.154Z,21.50
2022-08-26T21:01:42.073Z,21.40
2022-08-26T21:04:14.178Z,21.30
2022-08-26T21:06:52.094Z,21.20
2022-08-26T21:09:26.704Z,21.20
2022-08-26T21:11:56.495Z,21.20
2022-08-26T21:14:26.171Z,21.20
2022-08-26T21:16:53.660Z,21.20
2022-08-26T21:19:22.477Z,21.20
2022-08-26T21:21:50.546Z,21.20
2022-08-26T21:24:23.722Z,21.20
2022-08-26T21:26:50.480Z,21.10
2022-08-26T21:29:21.311Z,21.10
2022-08-26T21:32:18.302Z,21.10
2022-08-26T21:34:46.390Z,21.10
2022-08-26T21:37:39.278Z,21.10
2022-08-26T21:40:13.598Z,21.00
2022-08-26T21:42:43.499Z,21.00
2022-08-26T21:45:11.683Z,21.10
2022-08-26T21:47:41.037Z,21.10
2022-08-26T21:50:10.612Z,21.10
2022-08-26T21:52:38.178Z,21.10
2022-08-26T21:55:08.992Z,21.10
2022-08-26T21:57:40.097Z,21.10
2022-08-26T22:00:08.781Z,20.90
2022-08-26T22:02:37.774Z,20.70
2022-08-26T22:05:07.041Z,20.50
2022-08-26T22:07:36.069Z,20.50
2022-08-26T22:10:08.508Z,20.50
2022-08-26T22:12:35.382Z,20.40
2022-08-26T22:15:03.125Z,20.20
2022-08-26T22:17:29.946Z,20.00
2022-08-26T22:20:05.101Z,19.80
2022-08-26T22:22:38.978Z,19.70
2022-08-26T22:25:06.040Z,19.60
2022-08-26T22:27:34.092Z,19.60
2022-08-26T22:30:11.720Z,19.40
2022-08-26T22:32:43.195Z,19.40
2022-08-26T22:35:29.387Z,19.50
2022-08-26T22:37:58.914Z,19.50
2022-08-26T22:40:28.054Z,19.50
2022-08-26T22:43:00.454Z,19.50
2022-08-26T22:45:31.319Z,19.60
2022-08-26T22:48:03.821Z,19.60
2022-08-26T22:50:31.171Z,19.60
2022-08-26T22:53:00.361Z,19.70
2022-08-26T22:55:27.088Z,19.70
2022-08-26T22:57:53.767Z,19.70
2022-08-26T23:00:32.180Z,19.70
2022-08-26T23:03:04.065Z,19.70
2022-08-26T23:05:34.073Z,19.80
2022-08-26T23:08:01.498Z,19.80
2022-08-26T23:10:31.781Z,19.90
2022-08-26T23:12:59.380Z,19.90
2022-08-26T23:15:28.622Z,20.00
2022-08-26T23:17:58.420Z,20.00
2022-08-26T23:20:28.091Z,20.00
2022-08-26T23:22:57.874Z,19.90
2022-08-26T23:25:29.017Z,19.90
2022-08-26T23:27:55.839Z,19.80
2022-08-26T23:30:29.055Z,19.80
2022-08-26T23:33:04.632Z,19.80
2022-08-26T23:35:37.304Z,19.90
2022-08-26T23:38:09.276Z,19.90
2022-08-26T23:40:39.910Z,20.00
2022-08-26T23:43:20.252Z,20.00
2022-08-26T23:45:47.005Z,20.10
2022-08-26T23:48:13.855Z,20.10
2022-08-26T23:51:02.740Z,20.10
2022-08-26T23:53:31.626Z,20.00
2022-08-26T23:55:58.854Z,20.00
2022-08-26T23:58:28.845Z,19.90
